Impacts METAR Board INFO
IDs:

KPHX - Phoenix/Sky Harbor, AZ, US

Updated at: 1638 UTC 18 Dec 2017
Potential Impact None Slight Moderate High
Time18/04Z 18/05Z 18/06Z 18/07Z 18/08Z 18/09Z 18/10Z 18/11Z 18/12Z 18/13Z 18/14Z 18/15Z 18/16Z
VIS10 10 10 10 10 10 10 10 10 10 10 10 10
CIG-- -- -- -- 70 -- -- -- -- -- -- -- --
CoverSCTSCTSCTSCTBKNSCTFEWFEWFEWFEWFEWFEWFEW
FltCatVFRVFRVFRVFRVFRVFRVFRVFRVFRVFRVFRVFRVFR
WX--------------------------
WDir0706003602100200260002300
WSpd3 7 8 0 3 3 0 3 3 0 0 4 0
WGst-- -- -- -- -- -- -- -- -- -- -- -- --
Raw hourly METARs
KPHX 180351Z VRB03KT 10SM FEW060 SCT085 SCT120 14/06 A2998 RMK AO2 SLP147 T01440061 $
KPHX 180451Z 07007KT 10SM FEW085 SCT120 13/07 A2998 RMK AO2 SLP147 T01330067 $
KPHX 180551Z 06008KT 10SM FEW085 SCT120 13/07 A3000 RMK AO2 SLP152 T01330067 10156 20128 53009 $
KPHX 180651Z 00000KT 10SM FEW085 SCT120 12/07 A3001 RMK AO2 SLP158 T01220067 401610100 $
KPHX 180751Z 36003KT 10SM BKN070 12/06 A3001 RMK AO2 SLP157 T01220061 $
KPHX 180851Z 21003KT 10SM SCT100 10/07 A3002 RMK AO2 SLP159 T01000072 51006 $
KPHX 180951Z 00000KT 10SM FEW100 10/07 A3002 RMK AO2 SLP161 T01000072 $
KPHX 181051Z 20003KT 10SM FEW120 09/07 A3003 RMK AO2 SLP164 T00890072 $
KPHX 181151Z 26003KT 10SM FEW120 09/07 A3004 RMK AO2 SLP166 70013 T00890072 10139 20083 53007 $
KPHX 181251Z 00000KT 10SM FEW120 08/07 A3006 RMK AO2 SLP173 T00830067 $
KPHX 181351Z 00000KT 10SM FEW120 FEW200 09/07 A3008 RMK AO2 SLP179 T00890067
KPHX 181451Z 23004KT 10SM FEW120 FEW200 09/06 A3010 RMK AO2 SLP188 T00940061 53021
KPHX 181551Z 00000KT 10SM FEW120 11/07 A3012 RMK AO2 SLP195 T01060067